Mc Dermitt, Nevada
Current Conditions -  °F | °C
As of 8:56 PM on Friday 24 Oct 2014 (Local Time) from KWMC Reporting Station
Clear Clear  
Wind Chill: 51°   Ceiling: Unl
Heat Index: 51°   Visibility: 10mi
Dew Point: 18°   Wind: 8mph
Humidity: 27%   Direction: 150°SSE
Pressure: 29.95"   Gusts: NA
Location:  41.9814°N, 117.672°W
Report Text: KWMC 250356Z AUTO 15007KT 10SM CLR 11/M08 A2995 RMK AO2 SLP128 T01061078
Loading
Personal Weather Stations






























Interactive Weather Map
Tropical Storm Tracking
New forecast layout! Learn more

10-Day Weather Forecast

Advertisements
Track Severe Weather on mobile